Norman, OK

2:14 AM CDT on October 01, 2014 (GMT -0500)
Wiley Post | Change Station
CLOSE
Current Station
Airport
Location: Oklahoma City Wiley Post,
Elevation: 1299 ft
Nearby Weather Stations
4.1 Earthquake: Perry, Oklahoma (1 day ago)  

Elev 1299 ft 35.53 °N, 97.65 °W | Updated 1 hour ago

Partly Cloudy
Partly Cloudy
73 °F
Feels Like 73 °F
N
14
Wind Variable Wind from SSE

Today
High -- | Low -- °F
--% Chance of Precip.
Yesterday
High -- | Low -- °F
Precip. -- in
7:24 AM 7:13 PM
Waxing Crescent, 44% visible
Pressure 29.88 in
Visibility 10.0 miles
Clouds Clear
Dew Point 58 °F
Humidity 59%
Rainfall 0.00 in
Snow Depth Not available.
UV 0 out of 12
Pollen 9.70 out of 12
Ozone Good
PM2.5 Moderate
Flu Activity Not available.
METAR KPWA 300553Z AUTO 16012KT 10SM CLR 23/14 A2992 RMK AO2 SLP117 T02280144 10278 20228 403060161 58005

More Conditions Fewer Conditions

Pressure 29.88 in
Visibility 10.0 miles
Clouds Clear
Dew Point 58 °F
Humidity 59%
Rainfall 0.00 in
Snow Depth Not available.
UV 0 out of 12
Pollen 9.70 out of 12
Ozone Good
PM2.5 Moderate
Flu Activity Not available.
METAR KPWA 300553Z AUTO 16012KT 10SM CLR 23/14 A2992 RMK AO2 SLP117 T02280144 10278 20228 403060161 58005

More Conditions Fewer Conditions

10-Day Weather Forecast

Almanac

Astronomy

Oct. 01, 2014 Rise Set
Actual Time 7:24 AM CDT 7:13 PM CDT
Civil Twilight 6:59 AM CDT 7:38 PM CDT
Nautical Twilight 6:29 AM CDT 8:08 PM CDT
Astronomical Twilight 6:00 AM CDT 8:37 PM CDT
Moon 2:17 PM CDT No Moon Set
Length of Visible Light 12h 39m
Length of Day
11h 48m
Tomorrow will be 2m 12s shorter.
Waxing Crescent, 44% of the Moon is Illuminated
Today
Waxing Crescent
Oct 1
First Quarter
Oct 8
Full
Oct 15
Last Quarter
Oct 23
New

Today's Extremes

State Highs State Lows

Community

WunderPhotos

Upload Photos

1,757,898 photos uploaded!

Nearby

Air Quality

  Air Quality AQ Index Pollutant
Yesterday Moderate
PM2.5
Yesterday Good
OZONE
Current Moderate
PM2.5
Current Good
OZONE
Wednesday Good
PM2.5
Wednesday Good
OZONE
Thursday Good
PM2.5
Thursday Good
OZONE
Friday Good
OZONE
Friday Good
PM2.5
Saturday Good
OZONE
Saturday Good
PM2.5
Sunday Good
OZONE
Sunday Good
PM2.5

Snow Depth

Station Depth Elevation
No new snow has been reported.

Earthquake Activity

City Distance Mag. Time & Date
Medford, Oklahoma 115 miles 2.5 10:49 PM CDT
2014-09-30
Medford, Oklahoma 115 miles 2.8 8:30 PM CDT
2014-09-30
Spencer, Oklahoma 26 miles 3.0 5:12 PM CDT
2014-09-30
Perry, Oklahoma 67 miles 2.6 2:34 PM CDT
2014-09-30
Minimum magnitude displayed is 2.5.

Coastal Water Temperatures

Place Temperature
No Stations Reporting

Nearby Weather Stations